createdAt,value
2022-10-11T00:01:16.594Z,101201.13
2022-10-11T00:03:46.421Z,101208.91
2022-10-11T00:07:05.796Z,101214.75
2022-10-11T00:09:32.217Z,101208.50
2022-10-11T00:11:58.689Z,101213.97
2022-10-11T00:14:26.395Z,101214.72
2022-10-11T00:16:53.727Z,101210.38
2022-10-11T00:19:20.728Z,101214.34
2022-10-11T00:21:47.438Z,101215.25
2022-10-11T00:24:15.949Z,101209.59
2022-10-11T00:26:46.560Z,101217.06
2022-10-11T00:29:13.601Z,101219.31
2022-10-11T00:31:40.347Z,101226.66
2022-10-11T00:34:08.245Z,101227.50
2022-10-11T00:36:34.688Z,101227.78
2022-10-11T00:39:00.998Z,101223.78
2022-10-11T00:41:27.403Z,101222.22
2022-10-11T00:44:16.484Z,101224.91
2022-10-11T00:46:51.793Z,101227.25
2022-10-11T00:49:33.542Z,101231.66
2022-10-11T00:52:11.520Z,101235.34
2022-10-11T00:54:41.880Z,101239.88
2022-10-11T00:57:12.052Z,101238.50
2022-10-11T00:59:43.480Z,101240.06
2022-10-11T01:02:11.160Z,101247.28
2022-10-11T01:04:37.539Z,101247.72
2022-10-11T01:07:04.007Z,101250.41
2022-10-11T01:09:31.052Z,101250.41
2022-10-11T01:12:01.176Z,101255.78
2022-10-11T01:14:40.494Z,101257.81
2022-10-11T01:17:22.211Z,101248.63
2022-10-11T01:20:03.916Z,101247.09
2022-10-11T01:22:55.207Z,101248.56
2022-10-11T01:25:49.670Z,101254.78
2022-10-11T01:28:19.146Z,101269.03
2022-10-11T01:30:46.332Z,101259.97
2022-10-11T01:33:30.623Z,101260.06
2022-10-11T01:36:09.001Z,101267.41
2022-10-11T01:38:44.220Z,101264.34
2022-10-11T01:41:19.259Z,101270.69
2022-10-11T01:43:46.160Z,101265.00
2022-10-11T01:46:13.309Z,101267.44
2022-10-11T01:48:55.220Z,101272.97
2022-10-11T01:51:25.772Z,101274.94
2022-10-11T01:54:10.442Z,101277.78
2022-10-11T01:57:13.121Z,101284.38
2022-10-11T02:00:01.172Z,101289.06
2022-10-11T02:03:01.551Z,101292.47
2022-10-11T02:05:47.000Z,101288.69
2022-10-11T02:08:19.416Z,101293.06
2022-10-11T02:10:59.251Z,101290.75
2022-10-11T02:13:38.037Z,101302.38
2022-10-11T02:16:11.186Z,101304.09
2022-10-11T02:18:41.768Z,101305.16
2022-10-11T02:21:13.131Z,101312.13
2022-10-11T02:23:45.591Z,101306.97
2022-10-11T02:26:13.660Z,101310.41
2022-10-11T02:28:43.018Z,101297.53
2022-10-11T02:31:11.199Z,101312.13
2022-10-11T02:33:44.732Z,101317.50
2022-10-11T02:36:19.306Z,101310.13
2022-10-11T02:38:52.925Z,101306.53
2022-10-11T02:41:32.352Z,101314.25
2022-10-11T02:44:17.112Z,101314.75
2022-10-11T02:46:45.495Z,101313.16
2022-10-11T02:49:13.257Z,101324.00
2022-10-11T02:51:39.799Z,101312.41
2022-10-11T02:54:06.551Z,101318.06
2022-10-11T02:56:32.999Z,101323.38
2022-10-11T02:58:59.705Z,101326.22
2022-10-11T03:01:26.222Z,101329.03
2022-10-11T03:03:52.708Z,101332.09
2022-10-11T03:06:19.222Z,101332.09
2022-10-11T03:08:45.595Z,101333.22
2022-10-11T03:11:11.891Z,101338.75
2022-10-11T03:13:38.256Z,101338.09
2022-10-11T03:16:04.953Z,101346.75
2022-10-11T03:18:31.562Z,101349.09
2022-10-11T03:20:58.007Z,101349.94
2022-10-11T03:23:24.377Z,101357.94
2022-10-11T03:25:51.978Z,101357.69
2022-10-11T03:28:18.874Z,101356.97
2022-10-11T03:30:48.329Z,101349.69
2022-10-11T03:33:15.618Z,101358.63
2022-10-11T03:35:48.355Z,101358.00
2022-10-11T03:38:18.255Z,101373.19
2022-10-11T03:40:44.852Z,101366.28
2022-10-11T03:43:11.420Z,101365.13
2022-10-11T03:45:38.466Z,101369.50
2022-10-11T03:48:05.316Z,101371.97
2022-10-11T03:50:31.719Z,101378.19
2022-10-11T03:52:58.251Z,101380.84
2022-10-11T03:55:24.704Z,101377.78
2022-10-11T03:57:51.041Z,101380.22
2022-10-11T04:00:17.573Z,101380.72
2022-10-11T04:02:44.016Z,101386.16
2022-10-11T04:05:11.032Z,101380.69
2022-10-11T04:07:37.414Z,101383.50
2022-10-11T04:10:04.137Z,101387.97
2022-10-11T04:12:30.562Z,101400.56
2022-10-11T04:14:56.873Z,101402.84
2022-10-11T04:17:23.178Z,101398.06
2022-10-11T04:19:49.665Z,101401.75
2022-10-11T04:22:16.711Z,101406.78
2022-10-11T04:24:43.311Z,101412.00
2022-10-11T04:27:10.264Z,101406.13
2022-10-11T04:29:36.576Z,101407.97
2022-10-11T04:32:03.143Z,101408.41
2022-10-11T04:34:29.519Z,101412.53
2022-10-11T04:36:55.827Z,101417.34
2022-10-11T04:39:22.232Z,101425.00
2022-10-11T04:41:48.645Z,101418.16
2022-10-11T04:44:14.995Z,101426.75
2022-10-11T04:46:41.431Z,101422.47
2022-10-11T04:49:07.735Z,101425.91
2022-10-11T04:51:34.137Z,101433.72
2022-10-11T04:54:00.537Z,101427.22
2022-10-11T04:56:26.846Z,101427.88
2022-10-11T04:58:54.652Z,101427.13
2022-10-11T05:01:21.411Z,101434.19
2022-10-11T05:03:48.440Z,101436.75
2022-10-11T05:06:14.815Z,101442.78
2022-10-11T05:08:41.285Z,101452.09
2022-10-11T05:11:11.773Z,101458.94
2022-10-11T05:13:38.664Z,101461.28
2022-10-11T05:16:10.322Z,101458.72
2022-10-11T05:18:37.512Z,101462.72
2022-10-11T05:21:07.416Z,101455.50
2022-10-11T05:23:35.521Z,101460.75
2022-10-11T05:26:03.077Z,101459.56
2022-10-11T05:28:29.802Z,101467.81
2022-10-11T05:30:56.332Z,101470.47
2022-10-11T05:33:23.107Z,101471.22
2022-10-11T05:35:49.576Z,101467.47
2022-10-11T05:38:16.487Z,101478.03
2022-10-11T05:40:43.140Z,101482.81
2022-10-11T05:43:11.824Z,101487.31
2022-10-11T05:45:39.568Z,101490.81
2022-10-11T05:48:06.566Z,101490.03
2022-10-11T05:50:33.399Z,101489.97
2022-10-11T05:52:59.887Z,101492.81
2022-10-11T05:55:26.296Z,101499.28
2022-10-11T05:57:57.375Z,101498.06
2022-10-11T06:00:24.441Z,101502.91
2022-10-11T06:02:50.798Z,101512.50
2022-10-11T06:05:17.199Z,101521.72
2022-10-11T06:07:43.931Z,101517.47
2022-10-11T06:10:10.931Z,101524.47
2022-10-11T06:12:37.478Z,101519.41
2022-10-11T06:15:04.941Z,101531.72
2022-10-11T06:17:31.572Z,101533.34
2022-10-11T06:19:57.935Z,101540.53
2022-10-11T06:22:24.452Z,101534.31
2022-10-11T06:24:50.836Z,101536.03
2022-10-11T06:27:17.251Z,101539.09
2022-10-11T06:29:43.683Z,101540.03
2022-10-11T06:32:10.036Z,101546.72
2022-10-11T06:34:36.419Z,101537.66
2022-10-11T06:37:02.814Z,101558.00
2022-10-11T06:39:29.425Z,101556.50
2022-10-11T06:41:55.791Z,101565.28
2022-10-11T06:44:22.380Z,101566.78
2022-10-11T06:46:48.757Z,101570.03
2022-10-11T06:49:19.332Z,101578.59
2022-10-11T06:51:48.736Z,101572.31
2022-10-11T06:54:15.136Z,101578.03
2022-10-11T06:56:41.504Z,101577.94
2022-10-11T06:59:08.961Z,101580.09
2022-10-11T07:01:35.384Z,101587.03
2022-10-11T07:07:20.519Z,101593.88
2022-10-11T07:09:46.919Z,101594.34
2022-10-11T07:12:13.358Z,101607.50
2022-10-11T07:14:39.737Z,101599.09
2022-10-11T07:17:06.211Z,101603.47
2022-10-11T07:19:32.675Z,101606.50
2022-10-11T07:21:59.060Z,101605.16
2022-10-11T07:24:25.447Z,101612.88
2022-10-11T07:26:51.825Z,101609.47
2022-10-11T07:29:18.319Z,101604.75
2022-10-11T07:31:45.018Z,101614.59
2022-10-11T07:34:11.500Z,101610.25
2022-10-11T07:36:37.976Z,101613.88
2022-10-11T07:39:06.988Z,101618.72
2022-10-11T07:41:33.837Z,101614.53
2022-10-11T07:44:01.011Z,101610.25
2022-10-11T07:46:27.386Z,101614.63
2022-10-11T07:48:54.456Z,101611.00
2022-10-11T07:51:22.324Z,101617.19
2022-10-11T07:53:50.859Z,101614.00
2022-10-11T07:56:20.688Z,101601.31
2022-10-11T07:58:57.085Z,101607.97
2022-10-11T08:01:23.684Z,101604.63
2022-10-11T08:03:50.990Z,101604.38
2022-10-11T08:06:19.775Z,101612.34
2022-10-11T08:08:46.505Z,101617.34
2022-10-11T08:11:20.643Z,101620.38
2022-10-11T08:13:48.158Z,101610.78
2022-10-11T08:16:14.749Z,101615.59
2022-10-11T08:18:41.458Z,101611.81
2022-10-11T08:21:13.457Z,101596.13
2022-10-11T08:23:42.725Z,101593.84
2022-10-11T08:26:09.972Z,101600.16
2022-10-11T08:28:38.420Z,101594.78
2022-10-11T08:31:05.617Z,101583.16
2022-10-11T08:33:32.095Z,101589.41
2022-10-11T08:35:58.883Z,101624.06
2022-10-11T08:38:25.381Z,101626.19
2022-10-11T08:40:57.856Z,101622.41
2022-10-11T08:43:30.946Z,101621.94
2022-10-11T08:46:03.018Z,101623.94
2022-10-11T08:48:37.727Z,101585.16
2022-10-11T08:51:22.549Z,101567.59
2022-10-11T08:53:57.939Z,101615.53
2022-10-11T08:56:26.573Z,101609.19
2022-10-11T08:59:02.912Z,101582.75
2022-10-11T09:01:31.139Z,101601.38
2022-10-11T09:04:00.954Z,101608.94
2022-10-11T09:06:40.042Z,101627.28
2022-10-11T09:09:18.425Z,101622.16
2022-10-11T09:12:23.061Z,101600.13
2022-10-11T09:15:12.872Z,101594.69
2022-10-11T09:18:13.612Z,101599.94
2022-10-11T09:21:14.588Z,101613.16
2022-10-11T09:24:07.200Z,101623.75
2022-10-11T09:26:44.020Z,101594.88
2022-10-11T09:29:43.950Z,101597.63
2022-10-11T09:32:16.767Z,101594.28
2022-10-11T09:34:45.409Z,101619.25
2022-10-11T09:37:27.885Z,101581.66
2022-10-11T09:40:02.101Z,101590.22
2022-10-11T09:42:28.435Z,101610.22
2022-10-11T09:44:57.169Z,101588.84
2022-10-11T09:47:29.284Z,101594.09
2022-10-11T09:50:14.182Z,101614.53
2022-10-11T09:52:51.023Z,101619.78
2022-10-11T09:55:50.813Z,101614.44
2022-10-11T09:58:32.542Z,101623.31
2022-10-11T10:01:11.183Z,101621.47
2022-10-11T10:03:44.373Z,101623.69
2022-10-11T10:06:25.863Z,101612.19
2022-10-11T10:08:52.906Z,101611.22
2022-10-11T10:11:19.595Z,101613.38
2022-10-11T10:13:52.227Z,101611.97
2022-10-11T10:16:25.873Z,101606.28
2022-10-11T10:19:06.074Z,101604.19
2022-10-11T10:21:46.624Z,101607.31
2022-10-11T10:24:27.433Z,101604.19
2022-10-11T10:27:18.021Z,101604.88
2022-10-11T10:30:01.686Z,101595.53
2022-10-11T10:32:34.360Z,101598.94
2022-10-11T10:35:35.338Z,101594.81
2022-10-11T10:38:16.528Z,101599.06
2022-10-11T10:40:47.651Z,101595.13
2022-10-11T10:43:17.287Z,101595.53
2022-10-11T10:46:03.444Z,101596.50
2022-10-11T10:49:23.291Z,101603.63
2022-10-11T10:51:37.915Z,101598.38
2022-10-11T10:54:41.899Z,101587.41
2022-10-11T10:57:18.990Z,101591.53
2022-10-11T11:00:00.767Z,101597.81
2022-10-11T11:02:41.671Z,101595.09
2022-10-11T11:05:43.687Z,101591.53
2022-10-11T11:08:10.019Z,101600.47
2022-10-11T11:10:55.759Z,101600.03
2022-10-11T11:13:40.746Z,101591.47
2022-10-11T11:17:10.571Z,101596.19
2022-10-11T11:20:03.120Z,101587.53
2022-10-11T11:22:38.279Z,101587.88
2022-10-11T11:25:19.495Z,101590.09
2022-10-11T11:28:04.636Z,101584.31
2022-10-11T11:30:55.292Z,101582.00
2022-10-11T11:33:33.438Z,101579.63
2022-10-11T11:36:05.908Z,101568.34
2022-10-11T11:38:38.867Z,101570.31
2022-10-11T11:41:24.036Z,101565.56
2022-10-11T11:43:55.047Z,101563.84
2022-10-11T11:46:30.088Z,101563.41
2022-10-11T11:49:00.508Z,101554.84
2022-10-11T11:51:42.729Z,101555.44
2022-10-11T11:54:53.900Z,101560.50
2022-10-11T11:57:27.367Z,101559.09
2022-10-11T11:59:53.615Z,101563.75
2022-10-11T12:02:29.897Z,101555.34
2022-10-11T12:04:57.289Z,101563.69
2022-10-11T12:07:26.415Z,101560.00
2022-10-11T12:10:13.986Z,101560.50
2022-10-11T12:12:40.956Z,101557.00
2022-10-11T12:15:10.162Z,101554.28
2022-10-11T12:17:54.716Z,101545.72
2022-10-11T12:20:23.688Z,101538.91
2022-10-11T12:22:49.922Z,101541.47
2022-10-11T12:25:18.551Z,101531.44
2022-10-11T12:27:48.220Z,101530.00
2022-10-11T12:30:53.401Z,101526.38
2022-10-11T12:33:24.452Z,101530.34
2022-10-11T12:35:53.564Z,101521.81
2022-10-11T12:38:33.863Z,101517.19
2022-10-11T12:41:08.942Z,101527.06
2022-10-11T12:43:56.900Z,101515.72
2022-10-11T12:46:29.387Z,101515.28
2022-10-11T12:49:13.941Z,101515.97
2022-10-11T12:52:02.091Z,101499.47
2022-10-11T12:54:55.832Z,101506.94
2022-10-11T12:57:45.918Z,101504.56
2022-10-11T13:00:28.993Z,101495.63
2022-10-11T13:03:27.241Z,101504.38
2022-10-11T13:06:01.398Z,101498.28
2022-10-11T13:08:36.145Z,101495.41
2022-10-11T13:11:06.580Z,101510.63
2022-10-11T13:13:45.095Z,101502.31
2022-10-11T13:16:18.189Z,101505.03
2022-10-11T13:18:47.375Z,101499.66
2022-10-11T13:21:30.278Z,101495.66
2022-10-11T13:24:17.444Z,101505.91
2022-10-11T13:26:46.479Z,101489.13
2022-10-11T13:29:25.956Z,101490.28
2022-10-11T13:31:52.614Z,101489.75
2022-10-11T13:34:23.179Z,101494.44
2022-10-11T13:36:56.348Z,101492.03
2022-10-11T13:39:31.300Z,101492.69
2022-10-11T13:41:59.354Z,101489.72
2022-10-11T13:44:26.074Z,101474.19
2022-10-11T13:46:53.336Z,101482.28
2022-10-11T13:49:27.329Z,101481.72
2022-10-11T13:52:02.297Z,101479.72
2022-10-11T13:54:54.402Z,101480.28
2022-10-11T13:57:24.235Z,101484.13
2022-10-11T13:59:50.586Z,101475.19
2022-10-11T14:02:21.346Z,101474.47
2022-10-11T14:04:48.907Z,101468.88
2022-10-11T14:07:35.550Z,101472.69
2022-10-11T14:10:02.471Z,101467.03
2022-10-11T14:12:31.912Z,101466.97
2022-10-11T14:15:00.213Z,101472.97
2022-10-11T14:17:45.762Z,101467.97
2022-10-11T14:20:15.434Z,101467.44
2022-10-11T14:22:41.779Z,101469.63
2022-10-11T14:25:08.104Z,101463.53
2022-10-11T14:27:34.699Z,101457.28
2022-10-11T14:30:24.139Z,101456.41
2022-10-11T14:32:49.791Z,101456.69
2022-10-11T14:35:18.971Z,101460.25
2022-10-11T14:37:45.857Z,101442.94
2022-10-11T14:40:15.482Z,101451.16
2022-10-11T14:42:41.841Z,101452.16
2022-10-11T14:45:08.733Z,101460.97
2022-10-11T14:47:39.354Z,101451.56
2022-10-11T14:50:44.448Z,101455.56
2022-10-11T14:53:11.644Z,101456.81
2022-10-11T14:55:39.749Z,101458.13
2022-10-11T14:58:07.508Z,101454.56
2022-10-11T15:00:34.990Z,101454.88
2022-10-11T15:03:03.712Z,101450.03
2022-10-11T15:05:33.947Z,101443.06
2022-10-11T15:08:01.843Z,101443.19
2022-10-11T15:10:39.857Z,101451.03
2022-10-11T15:13:07.393Z,101453.91
2022-10-11T15:15:37.693Z,101451.75
2022-10-11T15:18:06.074Z,101450.63
2022-10-11T15:20:38.800Z,101450.91
2022-10-11T15:23:07.655Z,101445.50
2022-10-11T15:25:34.565Z,101439.25
2022-10-11T15:28:01.203Z,101452.47
2022-10-11T15:30:37.079Z,101448.53
2022-10-11T15:33:06.841Z,101457.91
2022-10-11T15:35:33.271Z,101452.50
2022-10-11T15:38:00.163Z,101451.25
2022-10-11T15:40:35.403Z,101444.84
2022-10-11T15:43:02.463Z,101449.09
2022-10-11T15:45:29.851Z,101443.00
2022-10-11T15:47:56.169Z,101441.72
2022-10-11T15:50:34.966Z,101447.69
2022-10-11T15:53:05.758Z,101447.69
2022-10-11T15:55:33.838Z,101454.38
2022-10-11T15:58:01.471Z,101456.50
2022-10-11T16:00:28.640Z,101443.13
2022-10-11T16:02:55.568Z,101451.03
2022-10-11T16:05:24.614Z,101452.91
2022-10-11T16:07:51.779Z,101448.63
2022-10-11T16:10:18.600Z,101451.19
2022-10-11T16:12:44.893Z,101451.19
2022-10-11T16:15:12.376Z,101445.34
2022-10-11T16:17:38.772Z,101451.03
2022-10-11T16:20:06.837Z,101443.75
2022-10-11T16:22:34.324Z,101446.16
2022-10-11T16:25:02.116Z,101457.56
2022-10-11T16:27:28.447Z,101458.09
2022-10-11T16:29:54.753Z,101460.47
2022-10-11T16:32:21.932Z,101459.75
2022-10-11T16:34:48.265Z,101457.44
2022-10-11T16:37:14.588Z,101467.66
2022-10-11T16:39:40.991Z,101468.19
2022-10-11T16:42:07.503Z,101468.41
2022-10-11T16:44:33.971Z,101462.59
2022-10-11T16:47:00.493Z,101465.94
2022-10-11T16:49:28.423Z,101466.09
2022-10-11T16:51:56.364Z,101459.66
2022-10-11T16:54:22.934Z,101466.47
2022-10-11T16:56:49.784Z,101467.13
2022-10-11T16:59:16.521Z,101463.91
2022-10-11T17:01:44.914Z,101468.50
2022-10-11T17:04:12.589Z,101449.94
2022-10-11T17:06:40.227Z,101457.94
2022-10-11T17:09:07.204Z,101457.16
2022-10-11T17:11:34.023Z,101465.00
2022-10-11T17:14:01.279Z,101469.63
2022-10-11T17:16:28.167Z,101463.56
2022-10-11T17:18:54.467Z,101477.53
2022-10-11T17:21:21.902Z,101468.00
2022-10-11T17:23:49.036Z,101474.38
2022-10-11T17:26:26.824Z,101477.31
2022-10-11T17:28:55.104Z,101464.47
2022-10-11T17:31:21.575Z,101464.63
2022-10-11T17:33:48.136Z,101476.84
2022-10-11T17:36:19.308Z,101469.75
2022-10-11T17:38:45.675Z,101463.75
2022-10-11T17:41:12.196Z,101468.28
2022-10-11T17:43:38.938Z,101458.00
2022-10-11T17:46:06.612Z,101463.00
2022-10-11T17:48:36.479Z,101465.50
2022-10-11T17:51:08.370Z,101463.50
2022-10-11T17:53:35.536Z,101472.72
2022-10-11T17:56:28.206Z,101466.44
2022-10-11T17:58:57.556Z,101471.56
2022-10-11T18:01:27.698Z,101468.00
2022-10-11T18:04:02.008Z,101475.81
2022-10-11T18:06:31.092Z,101471.97
2022-10-11T18:09:00.576Z,101470.84
2022-10-11T18:11:26.999Z,101479.50
2022-10-11T18:13:53.537Z,101488.88
2022-10-11T18:16:22.626Z,101484.91
2022-10-11T18:18:49.242Z,101480.72
2022-10-11T18:21:18.232Z,101485.22
2022-10-11T18:23:44.989Z,101491.03
2022-10-11T18:26:13.749Z,101488.78
2022-10-11T18:28:40.909Z,101486.66
2022-10-11T18:31:12.979Z,101487.56
2022-10-11T18:33:41.259Z,101484.56
2022-10-11T18:36:09.286Z,101489.50
2022-10-11T18:38:37.801Z,101480.72
2022-10-11T18:41:09.316Z,101490.59
2022-10-11T18:43:36.239Z,101485.97
2022-10-11T18:46:08.531Z,101489.31
2022-10-11T18:48:35.004Z,101486.28
2022-10-11T18:51:07.056Z,101491.44
2022-10-11T18:53:34.756Z,101482.97
2022-10-11T18:56:02.433Z,101480.78
2022-10-11T18:58:30.290Z,101476.97
2022-10-11T19:01:04.277Z,101481.81
2022-10-11T19:03:34.948Z,101483.53
2022-10-11T19:06:07.214Z,101477.31
2022-10-11T19:08:33.968Z,101480.72
2022-10-11T19:11:08.039Z,101477.19
2022-10-11T19:13:35.021Z,101478.38
2022-10-11T19:16:06.959Z,101468.97
2022-10-11T19:18:33.863Z,101473.78
2022-10-11T19:21:05.662Z,101480.13
2022-10-11T19:23:34.404Z,101471.44
2022-10-11T19:26:01.872Z,101481.00
2022-10-11T19:28:29.874Z,101470.41
2022-10-11T19:31:05.040Z,101473.63
2022-10-11T19:33:32.811Z,101472.13
2022-10-11T19:36:02.436Z,101465.69
2022-10-11T19:38:29.868Z,101466.00
2022-10-11T19:40:56.246Z,101466.13
2022-10-11T19:43:23.013Z,101470.13
2022-10-11T19:45:49.630Z,101460.97
2022-10-11T19:48:15.953Z,101460.47
2022-10-11T19:50:42.311Z,101469.25
2022-10-11T19:53:08.702Z,101464.75
2022-10-11T19:55:35.283Z,101464.53
2022-10-11T19:58:07.338Z,101471.59
2022-10-11T20:00:34.956Z,101470.53
2022-10-11T20:03:01.241Z,101468.28
2022-10-11T20:05:27.544Z,101473.31
2022-10-11T20:07:53.840Z,101474.03
2022-10-11T20:10:20.159Z,101476.31
2022-10-11T20:12:46.480Z,101478.88
2022-10-11T20:15:12.802Z,101477.19
2022-10-11T20:17:48.260Z,101475.03
2022-10-11T20:20:15.198Z,101474.28
2022-10-11T20:22:41.544Z,101480.78
2022-10-11T20:25:08.299Z,101473.81
2022-10-11T20:27:34.784Z,101477.13
2022-10-11T20:30:01.398Z,101480.78
2022-10-11T20:32:28.307Z,101479.31
2022-10-11T20:34:54.588Z,101481.13
2022-10-11T20:37:20.904Z,101479.75
2022-10-11T20:39:47.184Z,101476.84
2022-10-11T20:42:13.468Z,101482.38
2022-10-11T20:44:39.931Z,101476.78
2022-10-11T20:47:06.209Z,101479.84
2022-10-11T20:49:32.586Z,101483.47
2022-10-11T20:51:58.979Z,101483.03
2022-10-11T20:54:25.420Z,101475.28
2022-10-11T20:56:51.715Z,101484.25
2022-10-11T20:59:18.003Z,101478.25
2022-10-11T21:01:44.417Z,101482.66
2022-10-11T21:04:17.609Z,101481.00
2022-10-11T21:06:44.019Z,101475.56
2022-10-11T21:09:12.657Z,101481.63
2022-10-11T21:11:41.972Z,101485.94
2022-10-11T21:14:08.296Z,101477.22
2022-10-11T21:16:34.820Z,101484.13
2022-10-11T21:19:02.124Z,101483.38
2022-10-11T21:21:29.503Z,101487.09
2022-10-11T21:23:57.636Z,101485.69
2022-10-11T21:26:24.380Z,101478.53
2022-10-11T21:28:51.669Z,101479.09
2022-10-11T21:31:20.107Z,101479.47
2022-10-11T21:33:46.501Z,101489.50
2022-10-11T21:36:21.644Z,101473.47
2022-10-11T21:38:49.165Z,101472.91
2022-10-11T21:41:26.514Z,101476.31
2022-10-11T21:43:53.082Z,101470.22
2022-10-11T21:46:41.732Z,101471.75
2022-10-11T21:49:11.846Z,101474.41
2022-10-11T21:51:38.171Z,101472.25
2022-10-11T21:54:05.161Z,101469.84
2022-10-11T21:56:31.563Z,101476.41
2022-10-11T21:58:57.936Z,101474.22
2022-10-11T22:01:24.538Z,101475.13
2022-10-11T22:03:52.595Z,101480.63
2022-10-11T22:06:18.972Z,101475.00
2022-10-11T22:08:45.534Z,101485.88
2022-10-11T22:11:11.933Z,101481.09
2022-10-11T22:13:38.313Z,101482.81
2022-10-11T22:16:07.026Z,101473.38
2022-10-11T22:18:33.969Z,101476.16
2022-10-11T22:21:21.493Z,101471.34
2022-10-11T22:23:50.311Z,101465.25
2022-10-11T22:26:21.300Z,101473.84
2022-10-11T22:28:47.960Z,101464.88
2022-10-11T22:31:16.553Z,101469.75
2022-10-11T22:33:42.968Z,101470.41
2022-10-11T22:36:11.840Z,101466.97
2022-10-11T22:38:40.888Z,101461.03
2022-10-11T22:41:07.904Z,101456.88
2022-10-11T22:43:34.436Z,101455.06
2022-10-11T22:46:01.174Z,101453.13
2022-10-11T22:48:27.613Z,101452.66
2022-10-11T22:50:54.175Z,101448.16
2022-10-11T22:53:21.016Z,101448.44
2022-10-11T22:55:47.471Z,101451.94
2022-10-11T22:58:14.260Z,101447.81
2022-10-11T23:00:40.571Z,101452.22
2022-10-11T23:03:09.848Z,101442.69
2022-10-11T23:05:36.908Z,101448.88
2022-10-11T23:08:03.387Z,101454.25
2022-10-11T23:10:29.828Z,101454.56
2022-10-11T23:12:56.099Z,101447.31
2022-10-11T23:15:22.544Z,101449.91
2022-10-11T23:17:48.851Z,101443.91
2022-10-11T23:20:15.288Z,101444.53
2022-10-11T23:22:41.616Z,101447.56
2022-10-11T23:25:08.439Z,101453.34
2022-10-11T23:27:34.920Z,101446.63
2022-10-11T23:30:01.452Z,101442.34
2022-10-11T23:32:27.802Z,101448.63
2022-10-11T23:34:54.055Z,101458.69
2022-10-11T23:37:20.544Z,101456.66
2022-10-11T23:39:46.902Z,101441.69
2022-10-11T23:42:13.525Z,101455.03
2022-10-11T23:44:40.071Z,101459.81
2022-10-11T23:47:06.361Z,101455.88
2022-10-11T23:49:32.659Z,101450.00
2022-10-11T23:51:59.019Z,101456.09
2022-10-11T23:54:25.335Z,101460.13
2022-10-11T23:56:51.632Z,101446.03
2022-10-11T23:59:17.963Z,101466.03
